createdAt,value
2018-12-21T00:00:45.781Z,85.41
2018-12-21T00:01:45.789Z,85.31
2018-12-21T00:02:45.766Z,85.68
2018-12-21T00:03:45.764Z,85.31
2018-12-21T00:04:45.765Z,85.68
2018-12-21T00:05:45.757Z,85.72
2018-12-21T00:06:45.747Z,84.96
2018-12-21T00:07:45.711Z,84.34
2018-12-21T00:08:45.698Z,84.23
2018-12-21T00:09:45.717Z,84.65
2018-12-21T00:10:45.685Z,84.96
2018-12-21T00:11:45.684Z,85.27
2018-12-21T00:12:45.661Z,85.17
2018-12-21T00:13:45.672Z,83.72
2018-12-21T00:14:45.638Z,84.75
2018-12-21T00:15:45.629Z,84.86
2018-12-21T00:16:45.646Z,85.52
2018-12-21T00:17:45.609Z,85.93
2018-12-21T00:18:45.608Z,84.69
2018-12-21T00:19:45.589Z,85.37
2018-12-21T00:20:45.576Z,84.89
2018-12-21T00:21:45.588Z,85.00
2018-12-21T00:22:45.558Z,85.72
2018-12-21T00:23:45.551Z,84.69
2018-12-21T00:24:45.534Z,84.55
2018-12-21T00:25:45.522Z,85.06
2018-12-21T00:26:45.538Z,84.96
2018-12-21T00:27:45.512Z,85.06
2018-12-21T00:28:45.494Z,85.58
2018-12-21T00:29:45.517Z,85.06
2018-12-21T00:30:45.486Z,85.31
2018-12-21T00:31:45.467Z,84.75
2018-12-21T00:32:45.450Z,84.75
2018-12-21T00:33:45.480Z,85.47
2018-12-21T00:34:45.429Z,85.72
2018-12-21T00:35:45.422Z,85.72
2018-12-21T00:36:45.423Z,85.93
2018-12-21T00:37:45.399Z,85.93
2018-12-21T00:38:45.412Z,85.72
2018-12-21T00:39:45.377Z,86.34
2018-12-21T00:40:45.390Z,85.52
2018-12-21T00:41:45.381Z,85.83
2018-12-21T00:42:45.354Z,85.62
2018-12-21T00:43:45.339Z,85.52
2018-12-21T00:44:45.444Z,85.83
2018-12-21T00:45:45.320Z,85.83
2018-12-21T00:46:45.306Z,86.34
2018-12-21T00:47:45.294Z,85.72
2018-12-21T00:48:45.289Z,85.00
2018-12-21T00:49:45.306Z,84.79
2018-12-21T00:50:45.264Z,84.89
2018-12-21T00:51:45.280Z,85.62
2018-12-21T00:52:45.247Z,84.89
2018-12-21T00:53:45.255Z,85.10
2018-12-21T00:54:45.221Z,85.17
2018-12-21T00:55:45.243Z,85.72
2018-12-21T00:56:45.199Z,84.75
2018-12-21T00:57:45.191Z,84.75
2018-12-21T00:58:45.206Z,85.17
2018-12-21T00:59:45.176Z,85.10
2018-12-21T01:00:45.180Z,85.37
2018-12-21T01:01:45.170Z,85.37
2018-12-21T01:02:52.079Z,85.58
2018-12-21T01:03:45.127Z,84.89
2018-12-21T01:04:45.117Z,85.47
2018-12-21T01:05:45.133Z,84.86
2018-12-21T01:06:45.103Z,84.86
2018-12-21T01:07:45.091Z,85.83
2018-12-21T01:08:45.109Z,85.37
2018-12-21T01:09:45.065Z,83.72
2018-12-21T01:10:45.057Z,85.27
2018-12-21T01:11:45.047Z,85.37
2018-12-21T01:12:45.033Z,85.06
2018-12-21T01:13:45.045Z,85.37
2018-12-21T01:14:45.013Z,84.23
2018-12-21T01:15:45.011Z,84.75
2018-12-21T01:16:44.989Z,84.34
2018-12-21T01:17:45.022Z,84.86
2018-12-21T01:18:44.969Z,83.83
2018-12-21T01:19:44.957Z,84.34
2018-12-21T01:20:44.949Z,83.93
2018-12-21T01:21:44.936Z,83.27
2018-12-21T01:22:44.957Z,83.62
2018-12-21T01:23:44.920Z,84.03
2018-12-21T01:24:44.905Z,83.58
2018-12-21T01:25:44.919Z,83.37
2018-12-21T01:26:44.897Z,84.13
2018-12-21T01:27:44.873Z,84.03
2018-12-21T01:28:44.907Z,83.72
2018-12-21T01:29:44.852Z,84.13
2018-12-21T01:30:44.843Z,84.34
2018-12-21T01:31:44.835Z,85.06
2018-12-21T01:32:44.825Z,85.06
2018-12-21T01:33:44.845Z,83.62
2018-12-21T01:34:44.797Z,83.72
2018-12-21T01:35:44.786Z,83.83
2018-12-21T01:36:44.778Z,84.13
2018-12-21T01:37:44.767Z,83.51
2018-12-21T01:38:44.781Z,83.48
2018-12-21T01:39:44.750Z,83.72
2018-12-21T01:40:44.740Z,83.37
2018-12-21T01:41:44.749Z,83.93
2018-12-21T01:42:44.716Z,82.86
2018-12-21T01:43:44.804Z,83.17
2018-12-21T01:44:44.720Z,83.27
2018-12-21T01:45:44.686Z,83.37
2018-12-21T01:46:44.687Z,82.14
2018-12-21T01:47:44.671Z,82.03
2018-12-21T01:48:44.689Z,82.10
2018-12-21T01:49:44.641Z,82.86
2018-12-21T01:50:44.633Z,83.37
2018-12-21T01:51:47.179Z,82.96
2018-12-21T01:52:44.613Z,82.75
2018-12-21T01:53:44.630Z,82.86
2018-12-21T01:54:44.591Z,82.86
2018-12-21T01:55:44.583Z,82.14
2018-12-21T01:56:44.595Z,82.75
2018-12-21T01:57:44.560Z,83.17
2018-12-21T01:58:44.552Z,82.34
2018-12-21T01:59:44.542Z,82.86
2018-12-21T02:00:44.529Z,82.65
2018-12-21T02:01:44.533Z,81.37
2018-12-21T02:02:44.551Z,80.96
2018-12-21T02:03:44.496Z,81.48
2018-12-21T02:04:44.486Z,82.30
2018-12-21T02:05:44.476Z,82.86
2018-12-21T02:06:44.467Z,82.45
2018-12-21T02:07:44.483Z,82.30
2018-12-21T02:08:44.477Z,81.62
2018-12-21T02:09:44.436Z,81.58
2018-12-21T02:10:44.432Z,82.65
2018-12-21T02:11:44.419Z,81.82
2018-12-21T02:12:44.430Z,82.86
2018-12-21T02:13:44.392Z,81.48
2018-12-21T02:14:44.416Z,82.45
2018-12-21T02:15:44.381Z,81.82
2018-12-21T02:16:44.365Z,81.10
2018-12-21T02:17:44.386Z,82.30
2018-12-21T02:18:44.345Z,80.86
2018-12-21T02:19:44.347Z,81.93
2018-12-21T02:20:44.321Z,82.10
2018-12-21T02:21:44.310Z,81.07
2018-12-21T02:22:44.328Z,82.30
2018-12-21T02:23:44.322Z,81.07
2018-12-21T02:24:44.277Z,82.30
2018-12-21T02:25:44.271Z,81.68
2018-12-21T02:26:44.260Z,82.20
2018-12-21T02:27:44.245Z,81.37
2018-12-21T02:28:44.261Z,81.48
2018-12-21T02:29:44.228Z,81.07
2018-12-21T02:30:44.218Z,81.07
2018-12-21T02:31:44.206Z,81.17
2018-12-21T02:32:44.196Z,81.37
2018-12-21T02:33:44.210Z,80.96
2018-12-21T02:34:44.176Z,81.89
2018-12-21T02:35:44.170Z,81.99
2018-12-21T02:36:44.155Z,81.58
2018-12-21T02:37:44.140Z,82.51
2018-12-21T02:38:44.158Z,81.48
2018-12-21T02:39:44.121Z,81.17
2018-12-21T02:40:44.109Z,81.37
2018-12-21T02:41:44.133Z,82.30
2018-12-21T02:42:44.101Z,81.79
2018-12-21T02:43:44.080Z,81.79
2018-12-21T02:44:44.079Z,82.20
2018-12-21T02:45:44.058Z,82.20
2018-12-21T02:46:44.074Z,82.20
2018-12-21T02:47:44.037Z,82.10
2018-12-21T02:48:44.031Z,81.58
2018-12-21T02:49:44.042Z,81.89
2018-12-21T02:50:44.037Z,81.99
2018-12-21T02:51:43.993Z,82.51
2018-12-21T02:52:43.983Z,81.58
2018-12-21T02:53:43.973Z,81.89
2018-12-21T02:54:43.972Z,83.13
2018-12-21T02:55:43.978Z,83.13
2018-12-21T02:56:44.005Z,82.03
2018-12-21T02:57:43.939Z,82.61
2018-12-21T02:58:43.942Z,82.30
2018-12-21T02:59:43.907Z,82.40
2018-12-21T03:00:43.926Z,82.20
2018-12-21T03:01:43.892Z,81.89
2018-12-21T03:02:43.882Z,81.48
2018-12-21T03:03:43.870Z,82.20
2018-12-21T03:04:43.886Z,81.79
2018-12-21T03:05:43.845Z,81.58
2018-12-21T03:06:43.837Z,82.30
2018-12-21T03:07:43.826Z,82.51
2018-12-21T03:08:43.849Z,82.30
2018-12-21T03:09:43.802Z,82.71
2018-12-21T03:10:43.793Z,82.71
2018-12-21T03:11:43.793Z,83.33
2018-12-21T03:12:43.772Z,82.82
2018-12-21T03:13:43.785Z,83.23
2018-12-21T03:14:43.748Z,83.75
2018-12-21T03:15:43.770Z,82.92
2018-12-21T03:16:43.731Z,82.10
2018-12-21T03:17:43.730Z,82.20
2018-12-21T03:18:43.707Z,83.13
2018-12-21T03:19:43.701Z,82.82
2018-12-21T03:20:43.717Z,81.89
2018-12-21T03:21:43.672Z,83.13
2018-12-21T03:22:43.662Z,83.03
2018-12-21T03:23:43.651Z,82.71
2018-12-21T03:24:43.642Z,83.23
2018-12-21T03:25:43.750Z,82.92
2018-12-21T03:26:43.638Z,83.85
2018-12-21T03:27:43.613Z,83.33
2018-12-21T03:28:43.604Z,82.82
2018-12-21T03:29:43.588Z,83.03
2018-12-21T03:30:43.621Z,82.71
2018-12-21T03:31:43.597Z,83.13
2018-12-21T03:32:43.585Z,82.20
2018-12-21T03:33:43.572Z,82.26
2018-12-21T03:34:43.556Z,81.23
2018-12-21T03:35:43.553Z,81.75
2018-12-21T03:36:43.516Z,81.34
2018-12-21T03:37:43.518Z,81.54
2018-12-21T03:38:43.493Z,81.96
2018-12-21T03:39:43.504Z,82.57
2018-12-21T03:40:43.505Z,82.26
2018-12-21T03:41:43.463Z,81.96
2018-12-21T03:42:43.452Z,82.57
2018-12-21T03:43:43.446Z,82.16
2018-12-21T03:44:43.441Z,82.26
2018-12-21T03:45:43.443Z,81.65
2018-12-21T03:46:43.406Z,82.26
2018-12-21T03:47:43.398Z,81.65
2018-12-21T03:48:43.424Z,81.75
2018-12-21T03:49:43.378Z,81.85
2018-12-21T03:50:43.371Z,82.37
2018-12-21T03:51:43.376Z,81.65
2018-12-21T03:52:43.345Z,81.44
2018-12-21T03:53:43.356Z,81.23
2018-12-21T03:54:43.319Z,80.93
2018-12-21T03:55:43.318Z,81.37
2018-12-21T03:56:43.361Z,81.44
2018-12-21T03:57:43.310Z,81.44
2018-12-21T03:58:43.276Z,82.20
2018-12-21T03:59:43.297Z,82.71
2018-12-21T04:00:43.258Z,82.51
2018-12-21T04:01:43.241Z,82.98
2018-12-21T04:02:43.239Z,83.23
2018-12-21T04:03:43.228Z,83.33
2018-12-21T04:04:43.236Z,82.71
2018-12-21T04:05:43.197Z,83.13
2018-12-21T04:06:43.189Z,83.03
2018-12-21T04:07:43.179Z,82.61
2018-12-21T04:08:43.171Z,83.33
2018-12-21T04:09:43.173Z,83.23
2018-12-21T04:10:43.154Z,83.44
2018-12-21T04:11:43.140Z,83.44
2018-12-21T04:12:43.151Z,83.54
2018-12-21T04:13:43.120Z,83.85
2018-12-21T04:14:43.106Z,84.06
2018-12-21T04:15:43.106Z,84.16
2018-12-21T04:16:43.095Z,84.36
2018-12-21T04:17:43.111Z,83.75
2018-12-21T04:18:43.077Z,84.16
2018-12-21T04:19:43.056Z,84.36
2018-12-21T04:20:43.063Z,84.36
2018-12-21T04:21:43.036Z,84.67
2018-12-21T04:22:43.049Z,85.02
2018-12-21T04:23:43.012Z,85.09
2018-12-21T04:24:42.998Z,85.09
2018-12-21T04:25:42.991Z,85.09
2018-12-21T04:26:43.006Z,84.78
2018-12-21T04:27:42.966Z,84.81
2018-12-21T04:28:42.955Z,85.85
2018-12-21T04:29:42.945Z,86.32
2018-12-21T04:30:42.938Z,88.74
2018-12-21T04:31:42.947Z,88.43
2018-12-21T04:32:42.912Z,88.74
2018-12-21T04:33:42.938Z,88.84
2018-12-21T04:34:42.894Z,89.50
2018-12-21T04:35:42.892Z,90.22
2018-12-21T04:36:42.875Z,90.64
2018-12-21T04:37:42.862Z,90.84
2018-12-21T04:38:42.885Z,91.36
2018-12-21T04:39:42.842Z,91.05
2018-12-21T04:40:42.835Z,91.61
2018-12-21T04:41:42.819Z,92.13
2018-12-21T04:42:42.812Z,91.71
2018-12-21T04:43:42.822Z,90.64
2018-12-21T04:44:42.786Z,91.56
2018-12-21T04:45:42.779Z,91.56
2018-12-21T04:46:42.764Z,91.46
2018-12-21T04:47:42.753Z,91.16
2018-12-21T04:48:42.764Z,91.92
2018-12-21T04:49:42.765Z,91.61
2018-12-21T04:50:42.748Z,91.67
2018-12-21T04:51:42.755Z,92.23
2018-12-21T04:52:43.438Z,91.98
2018-12-21T04:53:42.691Z,92.19
2018-12-21T04:54:42.704Z,92.64
2018-12-21T04:55:42.677Z,92.64
2018-12-21T04:56:42.675Z,92.60
2018-12-21T04:57:42.682Z,92.95
2018-12-21T04:58:42.641Z,93.16
2018-12-21T04:59:42.635Z,93.78
2018-12-21T05:00:42.625Z,93.47
2018-12-21T05:01:42.608Z,93.57
2018-12-21T05:02:42.630Z,93.78
2018-12-21T05:03:42.596Z,93.47
2018-12-21T05:04:42.580Z,93.78
2018-12-21T05:05:42.572Z,93.88
2018-12-21T05:06:42.558Z,93.57
2018-12-21T05:07:42.578Z,93.78
2018-12-21T05:08:42.535Z,93.68
2018-12-21T05:09:42.524Z,93.26
2018-12-21T05:10:42.522Z,93.68
2018-12-21T05:11:42.523Z,93.88
2018-12-21T05:12:42.536Z,94.29
2018-12-21T05:13:42.493Z,94.50
2018-12-21T05:14:42.472Z,94.50
2018-12-21T05:15:42.465Z,94.09
2018-12-21T05:16:42.460Z,94.60
2018-12-21T05:17:42.468Z,94.29
2018-12-21T05:18:42.442Z,94.60
2018-12-21T05:19:42.445Z,94.65
2018-12-21T05:20:42.419Z,94.71
2018-12-21T05:21:42.405Z,94.71
2018-12-21T05:22:42.422Z,94.92
2018-12-21T05:23:42.405Z,95.06
2018-12-21T05:24:42.370Z,96.05
2018-12-21T05:25:42.369Z,95.57
2018-12-21T05:26:42.353Z,95.74
2018-12-21T05:27:42.394Z,95.48
2018-12-21T05:28:42.331Z,95.57
2018-12-21T05:29:42.321Z,96.15
2018-12-21T05:30:42.304Z,96.26
2018-12-21T05:31:42.298Z,96.20
2018-12-21T05:32:42.308Z,96.51
2018-12-21T05:33:42.275Z,95.95
2018-12-21T05:34:42.262Z,96.15
2018-12-21T05:35:42.279Z,96.30
2018-12-21T05:36:42.261Z,96.05
2018-12-21T05:37:42.241Z,97.02
2018-12-21T05:38:42.229Z,96.72
2018-12-21T05:39:42.212Z,97.13
2018-12-21T05:40:42.229Z,96.72
2018-12-21T05:41:42.191Z,97.13
2018-12-21T05:42:42.192Z,97.23
2018-12-21T05:43:42.172Z,97.19
2018-12-21T05:44:42.192Z,97.13
2018-12-21T05:45:42.182Z,97.23
2018-12-21T05:46:42.147Z,96.98
2018-12-21T05:47:42.133Z,97.54
2018-12-21T05:48:42.118Z,97.64
2018-12-21T05:49:42.106Z,97.85
2018-12-21T05:50:42.127Z,98.06
2018-12-21T05:51:42.086Z,96.88
2018-12-21T05:52:42.077Z,96.67
2018-12-21T05:53:42.095Z,96.77
2018-12-21T05:54:42.095Z,96.67
2018-12-21T05:55:42.045Z,96.67
2018-12-21T05:56:42.037Z,96.67
2018-12-21T05:57:42.048Z,97.02
2018-12-21T05:58:42.049Z,96.77
2018-12-21T05:59:42.006Z,96.82
2018-12-21T06:00:41.993Z,96.88
2018-12-21T06:01:41.995Z,97.08
2018-12-21T06:02:41.992Z,96.88
2018-12-21T06:03:41.964Z,96.77
2018-12-21T06:04:41.959Z,96.88
2018-12-21T06:05:41.968Z,96.88
2018-12-21T06:06:41.931Z,96.98
2018-12-21T06:07:41.930Z,97.39
2018-12-21T06:08:41.920Z,96.51
2018-12-21T06:09:41.901Z,96.92
2018-12-21T06:10:41.932Z,97.08
2018-12-21T06:11:41.899Z,96.77
2018-12-21T06:12:41.869Z,96.56
2018-12-21T06:13:41.859Z,96.77
2018-12-21T06:14:41.872Z,96.88
2018-12-21T06:15:41.866Z,96.77
2018-12-21T06:16:41.833Z,96.77
2018-12-21T06:17:41.849Z,96.56
2018-12-21T06:18:41.829Z,96.88
2018-12-21T06:19:41.795Z,97.08
2018-12-21T06:20:41.783Z,96.88
2018-12-21T06:21:41.778Z,96.98
2018-12-21T06:22:41.792Z,96.88
2018-12-21T06:23:41.824Z,96.98
2018-12-21T06:24:41.755Z,96.77
2018-12-21T06:25:41.741Z,96.88
2018-12-21T06:26:41.726Z,96.98
2018-12-21T06:27:41.737Z,96.88
2018-12-21T06:28:41.739Z,97.08
2018-12-21T06:29:41.711Z,96.56
2018-12-21T06:30:41.685Z,97.19
2018-12-21T06:31:41.708Z,96.88
2018-12-21T06:32:41.702Z,96.98
2018-12-21T06:33:41.680Z,97.08
2018-12-21T06:34:41.641Z,96.67
2018-12-21T06:35:41.640Z,96.56
2018-12-21T06:36:41.679Z,96.98
2018-12-21T06:37:41.610Z,96.77
2018-12-21T06:38:41.601Z,96.56
2018-12-21T06:39:41.627Z,96.47
2018-12-21T06:40:41.580Z,96.88
2018-12-21T06:41:41.574Z,96.56
2018-12-21T06:42:41.585Z,96.88
2018-12-21T06:43:41.575Z,96.88
2018-12-21T06:44:41.538Z,96.94
2018-12-21T06:45:41.538Z,96.21
2018-12-21T06:46:41.535Z,96.62
2018-12-21T06:47:41.584Z,95.90
2018-12-21T06:48:41.521Z,96.62
2018-12-21T06:49:41.483Z,97.08
2018-12-21T06:50:41.475Z,96.83
2018-12-21T06:51:41.468Z,96.73
2018-12-21T06:52:41.475Z,96.88
2018-12-21T06:53:41.543Z,97.04
2018-12-21T06:54:41.436Z,96.62
2018-12-21T06:55:41.425Z,96.83
2018-12-21T06:56:41.418Z,96.62
2018-12-21T06:57:41.432Z,96.67
2018-12-21T06:58:41.421Z,96.67
2018-12-21T06:59:41.386Z,96.73
2018-12-21T07:00:41.375Z,96.83
2018-12-21T07:01:41.361Z,96.62
2018-12-21T07:02:41.378Z,96.94
2018-12-21T07:03:41.357Z,96.73
2018-12-21T07:04:41.335Z,96.83
2018-12-21T07:05:41.419Z,96.52
2018-12-21T07:06:41.312Z,96.94
2018-12-21T07:07:41.324Z,96.94
2018-12-21T07:08:41.287Z,96.42
2018-12-21T07:09:41.305Z,97.14
2018-12-21T07:10:41.268Z,97.04
2018-12-21T07:11:41.259Z,96.62
2018-12-21T07:12:41.296Z,96.73
2018-12-21T07:13:41.270Z,96.73
2018-12-21T07:14:41.223Z,96.62
2018-12-21T07:15:41.248Z,96.83
2018-12-21T07:16:41.204Z,97.14
2018-12-21T07:17:41.192Z,97.04
2018-12-21T07:18:41.220Z,96.83
2018-12-21T07:19:41.213Z,97.04
2018-12-21T07:20:41.168Z,96.83
2018-12-21T07:21:41.174Z,97.14
2018-12-21T07:22:41.151Z,97.04
2018-12-21T07:23:41.161Z,97.14
2018-12-21T07:24:41.165Z,97.04
2018-12-21T07:25:41.113Z,96.94
2018-12-21T07:26:41.097Z,97.04
2018-12-21T07:27:41.092Z,96.83
2018-12-21T07:28:41.123Z,96.42
2018-12-21T07:29:41.082Z,97.14
2018-12-21T07:30:41.096Z,97.25
2018-12-21T07:31:41.065Z,97.14
2018-12-21T07:32:41.042Z,96.83
2018-12-21T07:33:41.088Z,97.04
2018-12-21T07:34:41.039Z,97.55
2018-12-21T07:35:41.007Z,97.86
2018-12-21T07:36:41.018Z,97.66
2018-12-21T07:37:41.037Z,97.66
2018-12-21T07:38:40.978Z,97.97
2018-12-21T07:39:40.989Z,97.34
2018-12-21T07:40:40.956Z,97.76
2018-12-21T07:41:40.952Z,97.86
2018-12-21T07:42:40.939Z,97.97
2018-12-21T07:43:40.931Z,97.86
2018-12-21T07:44:40.945Z,97.25
2018-12-21T07:45:40.910Z,97.55
2018-12-21T07:46:40.894Z,97.34
2018-12-21T07:47:40.888Z,97.55
2018-12-21T07:48:40.876Z,97.45
2018-12-21T07:49:40.887Z,97.34
2018-12-21T07:50:40.857Z,97.14
2018-12-21T07:51:40.837Z,97.45
2018-12-21T07:52:40.887Z,97.76
2018-12-21T07:53:40.850Z,98.07
2018-12-21T07:54:40.812Z,97.61
2018-12-21T07:55:40.826Z,97.45
2018-12-21T07:56:40.782Z,97.55
2018-12-21T07:57:40.772Z,97.72
2018-12-21T07:58:40.776Z,97.76
2018-12-21T07:59:40.759Z,97.92
2018-12-21T08:00:40.790Z,97.51
2018-12-21T08:01:40.763Z,97.61
2018-12-21T08:02:40.729Z,97.72
2018-12-21T08:03:40.712Z,97.45
2018-12-21T08:04:40.707Z,97.41
2018-12-21T08:05:40.707Z,97.51
2018-12-21T08:06:40.706Z,97.51
2018-12-21T08:07:40.719Z,97.82
2018-12-21T08:08:40.660Z,97.61
2018-12-21T08:09:40.649Z,97.72
2018-12-21T08:10:40.639Z,97.51
2018-12-21T08:11:40.641Z,98.02
2018-12-21T08:12:40.645Z,97.92
2018-12-21T08:13:40.632Z,97.30
2018-12-21T08:14:40.594Z,97.41
2018-12-21T08:15:40.632Z,97.72
2018-12-21T08:16:40.575Z,97.72
2018-12-21T08:17:40.561Z,97.82
2018-12-21T08:18:40.577Z,97.82
2018-12-21T08:19:40.538Z,97.72
2018-12-21T08:20:40.528Z,97.92
2018-12-21T08:21:40.517Z,97.92
2018-12-21T08:22:40.510Z,98.02
2018-12-21T08:23:44.288Z,98.13
2018-12-21T08:24:40.553Z,98.44
2018-12-21T08:25:40.475Z,98.23
2018-12-21T08:26:40.482Z,98.23
2018-12-21T08:27:40.452Z,97.82
2018-12-21T08:28:40.567Z,97.82
2018-12-21T08:29:40.469Z,98.33
2018-12-21T08:30:40.429Z,97.92
2018-12-21T08:31:40.425Z,97.88
2018-12-21T08:32:40.405Z,97.92
2018-12-21T08:33:40.429Z,97.82
2018-12-21T08:34:40.388Z,97.61
2018-12-21T08:35:40.371Z,97.88
2018-12-21T08:36:40.378Z,98.29
2018-12-21T08:37:40.355Z,97.88
2018-12-21T08:38:40.333Z,97.92
2018-12-21T08:39:40.352Z,97.77
2018-12-21T08:40:40.362Z,97.98
2018-12-21T08:41:40.334Z,97.47
2018-12-21T08:42:40.291Z,97.88
2018-12-21T08:43:40.280Z,97.26
2018-12-21T08:44:40.286Z,97.56
2018-12-21T08:45:40.267Z,97.67
2018-12-21T08:46:40.276Z,97.77
2018-12-21T08:47:40.266Z,98.29
2018-12-21T08:48:40.237Z,98.19
2018-12-21T08:49:40.216Z,97.88
2018-12-21T08:50:40.212Z,98.19
2018-12-21T08:51:40.258Z,98.19
2018-12-21T08:52:40.194Z,97.88
2018-12-21T08:53:40.172Z,98.39
2018-12-21T08:54:40.159Z,98.08
2018-12-21T08:55:40.165Z,97.52
2018-12-21T08:56:40.194Z,97.63
2018-12-21T08:57:40.153Z,97.31
2018-12-21T08:58:40.119Z,97.21
2018-12-21T08:59:40.107Z,97.63
2018-12-21T09:00:40.103Z,97.94
2018-12-21T09:01:40.106Z,97.73
2018-12-21T09:02:40.098Z,97.73
2018-12-21T09:03:40.061Z,97.21
2018-12-21T09:04:40.050Z,97.42
2018-12-21T09:05:40.040Z,97.11
2018-12-21T09:06:40.055Z,97.42
2018-12-21T09:07:40.023Z,97.52
2018-12-21T09:08:40.047Z,97.21
2018-12-21T09:09:40.012Z,97.52
2018-12-21T09:10:39.982Z,97.73
2018-12-21T09:11:40.012Z,97.73
2018-12-21T09:12:39.968Z,97.48
2018-12-21T09:13:39.951Z,97.94
2018-12-21T09:14:39.944Z,97.89
2018-12-21T09:15:39.997Z,97.38
2018-12-21T09:16:39.960Z,97.27
2018-12-21T09:17:39.938Z,97.06
2018-12-21T09:18:39.897Z,97.68
2018-12-21T09:19:39.891Z,97.73
2018-12-21T09:20:39.878Z,97.68
2018-12-21T09:21:39.864Z,97.38
2018-12-21T09:22:39.905Z,97.68
2018-12-21T09:23:39.875Z,97.89
2018-12-21T09:24:39.839Z,97.58
2018-12-21T09:25:39.819Z,97.89
2018-12-21T09:26:39.807Z,97.99
2018-12-21T09:27:39.799Z,98.10
2018-12-21T09:28:39.806Z,97.78
2018-12-21T09:29:39.772Z,97.99
2018-12-21T09:30:39.761Z,98.10
2018-12-21T09:31:39.771Z,97.48
2018-12-21T09:32:39.736Z,97.89
2018-12-21T09:33:39.781Z,98.20
2018-12-21T09:34:39.715Z,98.20
2018-12-21T09:35:39.706Z,98.41
2018-12-21T09:36:39.693Z,98.50
2018-12-21T09:37:39.742Z,98.41
2018-12-21T09:38:39.795Z,97.89
2018-12-21T09:39:39.659Z,97.99
2018-12-21T09:40:39.644Z,98.20
2018-12-21T09:41:39.638Z,98.10
2018-12-21T09:42:39.645Z,98.71
2018-12-21T09:43:39.645Z,98.82
2018-12-21T09:44:39.603Z,98.61
2018-12-21T09:45:39.597Z,98.71
2018-12-21T09:46:39.668Z,98.20
2018-12-21T09:47:39.595Z,98.71
2018-12-21T09:48:39.585Z,98.71
2018-12-21T09:49:39.543Z,98.71
2018-12-21T09:50:39.532Z,98.57
2018-12-21T09:51:39.546Z,98.50
2018-12-21T09:52:39.557Z,98.46
2018-12-21T09:53:39.514Z,98.15
2018-12-21T09:54:39.487Z,98.41
2018-12-21T09:55:39.477Z,98.57
2018-12-21T09:56:39.463Z,98.57
2018-12-21T09:57:39.486Z,98.67
2018-12-21T09:58:39.453Z,98.46
2018-12-21T09:59:39.444Z,98.25
2018-12-21T10:00:39.417Z,98.57
2018-12-21T10:01:39.432Z,98.57
2018-12-21T10:02:39.427Z,98.00
2018-12-21T10:03:39.387Z,98.57
2018-12-21T10:04:39.379Z,98.15
2018-12-21T10:05:39.411Z,98.11
2018-12-21T10:06:39.351Z,97.60
2018-12-21T10:07:39.369Z,98.00
2018-12-21T10:08:39.326Z,97.69
2018-12-21T10:09:39.330Z,97.80
2018-12-21T10:10:39.305Z,97.69
2018-12-21T10:11:39.292Z,97.69
2018-12-21T10:12:39.332Z,97.69
2018-12-21T10:13:39.295Z,97.69
2018-12-21T10:14:39.285Z,97.60
2018-12-21T10:15:39.250Z,97.69
2018-12-21T10:16:39.316Z,97.39
2018-12-21T10:17:39.253Z,97.69
2018-12-21T10:18:39.223Z,97.69
2018-12-21T10:19:39.223Z,97.69
2018-12-21T10:20:39.196Z,97.86
2018-12-21T10:21:39.199Z,97.65
2018-12-21T10:22:39.176Z,97.55
2018-12-21T10:23:39.156Z,97.69
2018-12-21T10:24:39.200Z,97.28
2018-12-21T10:25:39.134Z,97.86
2018-12-21T10:26:39.126Z,97.55
2018-12-21T10:27:39.121Z,97.96
2018-12-21T10:28:39.101Z,98.16
2018-12-21T10:29:39.134Z,97.61
2018-12-21T10:30:39.077Z,97.86
2018-12-21T10:31:39.067Z,97.55
2018-12-21T10:32:39.056Z,97.50
2018-12-21T10:33:39.045Z,97.44
2018-12-21T10:34:39.058Z,97.19
2018-12-21T10:35:39.027Z,97.40
2018-12-21T10:36:39.009Z,97.15
2018-12-21T10:37:39.037Z,97.36
2018-12-21T10:38:38.991Z,97.15
2018-12-21T10:39:38.973Z,97.25
2018-12-21T10:40:38.962Z,97.36
2018-12-21T10:41:38.967Z,97.19
2018-12-21T10:42:38.963Z,97.66
2018-12-21T10:43:38.967Z,97.36
2018-12-21T10:44:38.919Z,96.39
2018-12-21T10:45:41.774Z,96.48
2018-12-21T10:46:38.901Z,96.73
2018-12-21T10:47:38.884Z,95.97
2018-12-21T10:48:38.906Z,96.39
2018-12-21T10:49:38.897Z,96.69
2018-12-21T10:50:38.888Z,96.69
2018-12-21T10:51:38.855Z,96.23
2018-12-21T10:52:39.043Z,96.23
2018-12-21T10:53:39.511Z,96.44
2018-12-21T10:54:38.813Z,96.55
2018-12-21T10:55:38.819Z,96.34
2018-12-21T10:56:38.781Z,96.14
2018-12-21T10:57:38.771Z,96.44
2018-12-21T10:58:38.761Z,96.44
2018-12-21T10:59:43.391Z,96.14
2018-12-21T11:00:39.766Z,96.09
2018-12-21T11:01:38.735Z,96.44
2018-12-21T11:02:38.714Z,96.19
2018-12-21T11:03:38.729Z,96.30
2018-12-21T11:04:38.697Z,96.44
2018-12-21T11:05:38.710Z,96.19
2018-12-21T11:06:38.683Z,95.89
2018-12-21T11:07:38.701Z,95.68
2018-12-21T11:08:38.646Z,95.57
2018-12-21T11:09:38.637Z,95.78
2018-12-21T11:10:38.621Z,95.94
2018-12-21T11:11:38.618Z,95.53
2018-12-21T11:12:38.636Z,94.92
2018-12-21T11:13:38.595Z,95.28
2018-12-21T11:14:38.576Z,94.51
2018-12-21T11:15:38.569Z,95.39
2018-12-21T11:16:38.556Z,95.18
2018-12-21T11:17:38.592Z,94.26
2018-12-21T11:18:38.532Z,94.05
2018-12-21T11:19:38.518Z,94.67
2018-12-21T11:20:38.507Z,93.95
2018-12-21T11:21:38.494Z,93.80
2018-12-21T11:22:38.518Z,94.11
2018-12-21T11:23:38.480Z,92.78
2018-12-21T11:24:38.473Z,93.04
2018-12-21T11:25:38.455Z,92.43
2018-12-21T11:26:38.445Z,92.74
2018-12-21T11:27:38.446Z,92.94
2018-12-21T11:28:38.438Z,93.04
2018-12-21T11:29:38.401Z,92.43
2018-12-21T11:30:38.406Z,92.74
2018-12-21T11:31:38.380Z,92.53
2018-12-21T11:32:38.389Z,92.83
2018-12-21T11:33:38.381Z,92.22
2018-12-21T11:34:38.344Z,92.18
2018-12-21T11:35:38.333Z,92.18
2018-12-21T11:36:38.349Z,91.56
2018-12-21T11:37:38.330Z,92.38
2018-12-21T11:38:38.323Z,91.77
2018-12-21T11:39:38.308Z,91.26
2018-12-21T11:40:38.272Z,91.97
2018-12-21T11:41:38.266Z,91.05
2018-12-21T11:42:38.296Z,91.77
2018-12-21T11:43:38.241Z,92.28
2018-12-21T11:44:38.254Z,91.46
2018-12-21T11:45:38.227Z,91.77
2018-12-21T11:46:38.203Z,92.08
2018-12-21T11:47:38.190Z,91.63
2018-12-21T11:48:38.185Z,91.01
2018-12-21T11:49:38.210Z,90.50
2018-12-21T11:50:38.152Z,90.19
2018-12-21T11:51:38.147Z,90.60
2018-12-21T11:52:38.142Z,90.91
2018-12-21T11:53:38.156Z,91.31
2018-12-21T11:54:44.203Z,91.42
2018-12-21T11:55:39.093Z,91.22
2018-12-21T11:56:38.088Z,91.11
2018-12-21T11:57:38.073Z,91.01
2018-12-21T11:58:38.111Z,91.52
2018-12-21T11:59:44.794Z,91.42
2018-12-21T12:00:39.086Z,90.60
2018-12-21T12:01:38.029Z,90.81
2018-12-21T12:02:38.009Z,90.97
2018-12-21T12:03:37.998Z,90.50
2018-12-21T12:04:37.998Z,90.86
2018-12-21T12:05:37.997Z,90.60
2018-12-21T12:06:37.959Z,91.11
2018-12-21T12:07:37.959Z,90.97
2018-12-21T12:08:37.940Z,91.01
2018-12-21T12:09:37.938Z,91.07
2018-12-21T12:10:37.939Z,90.77
2018-12-21T12:11:37.925Z,90.56
2018-12-21T12:12:39.282Z,89.70
2018-12-21T12:13:37.882Z,89.90
2018-12-21T12:14:37.864Z,89.90
2018-12-21T12:15:37.877Z,89.80
2018-12-21T12:16:37.862Z,89.90
2018-12-21T12:17:37.828Z,90.31
2018-12-21T12:18:37.844Z,89.50
2018-12-21T12:19:37.804Z,90.62
2018-12-21T12:20:37.796Z,89.29
2018-12-21T12:21:37.785Z,89.59
2018-12-21T12:22:37.799Z,89.65
2018-12-21T12:23:37.761Z,89.09
2018-12-21T12:24:37.753Z,89.59
2018-12-21T12:25:37.727Z,89.80
2018-12-21T12:26:44.423Z,90.11
2018-12-21T12:27:38.727Z,89.90
2018-12-21T12:28:37.701Z,90.11
2018-12-21T12:29:37.680Z,90.41
2018-12-21T12:30:37.800Z,90.31
2018-12-21T12:31:37.662Z,90.68
2018-12-21T12:32:37.647Z,89.56
2018-12-21T12:33:37.668Z,89.86
2018-12-21T12:34:37.622Z,89.86
2018-12-21T12:35:37.608Z,89.72
2018-12-21T12:36:37.623Z,89.86
2018-12-21T12:37:37.588Z,89.72
2018-12-21T12:38:37.578Z,89.56
2018-12-21T12:39:37.574Z,89.51
2018-12-21T12:40:37.548Z,89.76
2018-12-21T12:41:37.563Z,88.84
2018-12-21T12:42:37.553Z,89.51
2018-12-21T12:43:37.519Z,89.56
2018-12-21T12:44:37.499Z,88.79
2018-12-21T12:45:37.490Z,89.31
2018-12-21T12:46:37.485Z,89.86
2018-12-21T12:47:37.501Z,89.31
2018-12-21T12:48:37.571Z,88.70
2018-12-21T12:49:37.443Z,88.90
2018-12-21T12:50:37.430Z,88.90
2018-12-21T12:51:37.416Z,89.58
2018-12-21T12:52:37.404Z,89.58